Time,TemperatureF,DewpointF,PressureIn,WindDirection,WindDirectionDegrees,WindSpeedMPH,WindSpeedGustMPH,Humidity,HourlyPrecipIn,Conditions,Clouds,dailyrainin,SoftwareType,DateUTC
2013-02-14 00:02:00,32.0,29.0,30.02,ENE,58,0.0,2.0,87,0.00,,,0.33,,2013-02-14 05:02:00,
2013-02-14 00:11:00,32.0,29.0,30.02,ENE,58,0.0,2.0,87,0.00,,,0.33,,2013-02-14 05:11:00,
2013-02-14 00:32:00,30.0,27.0,30.04,SSE,148,0.0,3.0,89,0.00,,,0.19,,2013-02-14 05:32:00,
2013-02-14 00:42:00,30.0,27.0,30.04,SSE,148,0.0,3.0,89,0.00,,,0.19,,2013-02-14 05:42:00,
2013-02-14 00:52:00,30.0,27.0,30.05,SW,231,0.0,3.0,89,0.00,,,0.19,,2013-02-14 05:52:00,
2013-02-14 01:02:00,30.0,27.0,30.05,WSW,255,0.0,4.0,90,0.00,,,0.19,,2013-02-14 06:02:00,
2013-02-14 01:11:00,30.0,27.0,30.05,SW,227,1.0,3.0,90,0.00,,,0.11,,2013-02-14 06:11:00,
2013-02-14 01:21:00,30.0,27.0,30.05,SW,227,1.0,3.0,90,0.00,,,0.11,,2013-02-14 06:21:00,
2013-02-14 01:32:00,30.0,27.0,30.05,SW,228,0.0,3.0,89,0.00,,,0.11,,2013-02-14 06:32:00,
2013-02-14 01:42:00,30.0,27.0,30.05,SW,228,0.0,3.0,89,0.00,,,0.11,,2013-02-14 06:42:00,
2013-02-14 01:52:00,30.0,27.0,30.05,SW,228,0.0,1.0,89,0.00,,,0.11,,2013-02-14 06:52:00,
2013-02-14 02:01:00,30.0,27.0,30.06,SW,228,0.0,0.0,90,0.00,,,0.11,,2013-02-14 07:01:00,
2013-02-14 02:11:00,30.0,27.0,30.06,SW,228,0.0,0.0,90,0.00,,,0.11,,2013-02-14 07:11:00,
2013-02-14 02:21:00,30.0,27.0,30.06,WSW,256,0.0,6.0,90,0.00,,,0.08,,2013-02-14 07:21:00,
2013-02-14 02:32:00,29.0,26.0,30.06,WSW,256,1.0,3.0,90,0.00,,,0.08,,2013-02-14 07:32:00,
2013-02-14 02:42:00,29.0,26.0,30.06,WSW,256,1.0,3.0,90,0.00,,,0.08,,2013-02-14 07:42:00,
2013-02-14 02:52:00,29.0,26.0,30.07,WSW,256,0.0,2.0,90,0.00,,,0.08,,2013-02-14 07:52:00,
2013-02-14 03:01:00,29.0,26.0,30.07,WSW,256,0.0,0.0,90,0.00,,,0.08,,2013-02-14 08:01:00,
2013-02-14 03:11:00,29.0,26.0,30.07,WSW,256,0.0,0.0,90,0.00,,,0.08,,2013-02-14 08:11:00,
2013-02-14 03:22:00,29.0,26.0,30.07,WSW,256,0.0,0.0,90,0.00,,,0.06,,2013-02-14 08:22:00,
2013-02-14 03:32:00,28.0,26.0,30.07,WSW,256,0.0,0.0,91,0.00,,,0.06,,2013-02-14 08:32:00,
2013-02-14 03:43:00,28.0,26.0,30.07,WSW,256,0.0,0.0,91,0.00,,,0.06,,2013-02-14 08:43:00,
2013-02-14 03:52:00,28.0,26.0,30.08,WSW,256,0.0,1.0,91,0.00,,,0.06,,2013-02-14 08:52:00,
2013-02-14 04:02:00,28.0,26.0,30.08,West,262,0.0,3.0,91,0.00,,,0.06,,2013-02-14 09:02:00,
2013-02-14 04:11:00,28.0,26.0,30.08,West,262,0.0,3.0,91,0.00,,,0.06,,2013-02-14 09:11:00,
2013-02-14 04:21:00,28.0,25.0,30.08,West,262,0.0,2.0,90,0.00,,,0.04,,2013-02-14 09:21:00,
2013-02-14 04:32:00,28.0,25.0,30.08,West,262,0.0,0.0,90,0.00,,,0.04,,2013-02-14 09:32:00,
2013-02-14 04:42:00,28.0,25.0,30.08,West,262,0.0,0.0,90,0.00,,,0.04,,2013-02-14 09:42:00,
2013-02-14 04:52:00,27.0,25.0,30.09,West,262,0.0,0.0,91,0.00,,,0.04,,2013-02-14 09:52:00,
2013-02-14 05:02:00,27.0,25.0,30.09,West,262,0.0,0.0,92,0.00,,,0.04,,2013-02-14 10:02:00,
2013-02-14 05:11:00,27.0,25.0,30.09,West,262,0.0,0.0,92,0.00,,,0.03,,2013-02-14 10:11:00,
2013-02-14 05:21:00,27.0,25.0,30.09,West,262,0.0,0.0,92,0.00,,,0.03,,2013-02-14 10:21:00,
2013-02-14 05:32:00,26.0,24.0,30.09,West,262,0.0,0.0,92,0.00,,,0.03,,2013-02-14 10:32:00,
2013-02-14 05:42:00,26.0,24.0,30.09,West,262,0.0,0.0,92,0.00,,,0.03,,2013-02-14 10:42:00,
2013-02-14 05:52:00,26.0,24.0,30.09,West,262,0.0,2.0,93,0.00,,,0.03,,2013-02-14 10:52:00,
2013-02-14 06:02:00,26.0,24.0,30.09,West,262,0.0,0.0,93,0.00,,,0.03,,2013-02-14 11:02:00,
2013-02-14 06:11:00,26.0,24.0,30.09,West,262,0.0,0.0,93,0.00,,,0.03,,2013-02-14 11:11:00,
2013-02-14 06:22:00,26.0,24.0,30.09,West,262,0.0,2.0,93,0.00,,,0.02,,2013-02-14 11:22:00,
2013-02-14 06:32:00,26.0,24.0,30.09,West,262,0.0,2.0,93,0.00,,,0.02,,2013-02-14 11:32:00,
2013-02-14 06:42:00,26.0,24.0,30.09,West,262,0.0,2.0,93,0.00,,,0.02,,2013-02-14 11:42:00,
2013-02-14 06:52:00,26.0,24.0,30.10,West,262,0.0,0.0,93,0.00,,,0.02,,2013-02-14 11:52:00,
2013-02-14 07:02:00,26.0,25.0,30.11,West,262,0.0,0.0,94,0.00,,,0.02,,2013-02-14 12:02:00,
2013-02-14 07:12:00,26.0,25.0,30.11,West,262,0.0,0.0,94,0.00,,,0.02,,2013-02-14 12:12:00,
2013-02-14 07:22:00,26.0,25.0,30.12,West,262,0.0,0.0,94,0.00,,,0.02,,2013-02-14 12:22:00,
2013-02-14 07:32:00,26.0,25.0,30.12,West,262,0.0,0.0,94,0.00,,,0.02,,2013-02-14 12:32:00,
2013-02-14 07:42:00,26.0,25.0,30.12,West,262,0.0,0.0,94,0.00,,,0.02,,2013-02-14 12:42:00,
2013-02-14 07:53:00,27.0,26.0,30.15,West,262,0.0,0.0,94,0.00,,,0.02,,2013-02-14 12:53:00,
2013-02-14 08:02:00,27.0,26.0,30.15,West,262,0.0,0.0,95,0.00,,,0.02,,2013-02-14 13:02:00,
2013-02-14 08:11:00,27.0,26.0,30.15,West,262,0.0,0.0,95,0.00,,,0.02,,2013-02-14 13:11:00,
2013-02-14 08:21:00,27.0,26.0,30.15,West,262,0.0,0.0,95,0.00,,,0.02,,2013-02-14 13:21:00,
2013-02-14 08:32:00,28.0,27.0,30.16,West,262,0.0,0.0,95,0.00,,,0.02,,2013-02-14 13:32:00,
2013-02-14 08:42:00,28.0,27.0,30.16,West,262,0.0,0.0,95,0.00,,,0.02,,2013-02-14 13:42:00,
2013-02-14 08:52:00,28.0,27.0,30.16,West,262,0.0,0.0,95,0.00,,,0.02,,2013-02-14 13:52:00,
2013-02-14 09:01:00,28.0,27.0,30.16,West,262,0.0,0.0,95,0.00,,,0.02,,2013-02-14 14:01:00,
2013-02-14 09:11:00,28.0,27.0,30.16,West,262,0.0,0.0,95,0.00,,,0.02,,2013-02-14 14:11:00,
2013-02-14 09:21:00,29.0,27.0,30.19,East,98,0.0,0.0,94,0.00,,,0.02,,2013-02-14 14:21:00,
2013-02-14 09:32:00,29.0,27.0,30.18,East,98,0.0,1.0,93,0.00,,,0.02,,2013-02-14 14:32:00,
2013-02-14 09:42:00,29.0,27.0,30.18,East,98,0.0,1.0,93,0.00,,,0.02,,2013-02-14 14:42:00,
2013-02-14 09:52:00,29.0,27.0,30.18,East,98,0.0,1.0,93,0.00,,,0.02,,2013-02-14 14:52:00,
2013-02-14 10:02:00,30.0,28.0,30.19,East,95,0.0,3.0,91,0.00,,,0.02,,2013-02-14 15:02:00,
2013-02-14 10:11:00,30.0,28.0,30.19,East,95,0.0,3.0,91,0.00,,,0.02,,2013-02-14 15:11:00,
2013-02-14 10:21:00,30.0,28.0,30.19,East,95,0.0,3.0,91,0.00,,,0.02,,2013-02-14 15:21:00,
2013-02-14 10:32:00,31.0,29.0,30.19,ESE,120,0.0,2.0,91,0.00,,,0.02,,2013-02-14 15:32:00,
2013-02-14 10:42:00,31.0,29.0,30.19,ESE,120,0.0,2.0,91,0.00,,,0.02,,2013-02-14 15:42:00,
2013-02-14 10:52:00,31.0,28.0,30.19,North,11,1.0,5.0,88,0.00,,,0.02,,2013-02-14 15:52:00,
2013-02-14 11:02:00,31.0,28.0,30.17,ENE,63,2.0,4.0,89,0.00,,,0.02,,2013-02-14 16:02:00,
2013-02-14 11:11:00,31.0,28.0,30.17,ENE,63,2.0,4.0,89,0.00,,,0.02,,2013-02-14 16:11:00,
2013-02-14 11:21:00,31.0,28.0,30.17,ENE,63,2.0,4.0,89,0.00,,,0.02,,2013-02-14 16:21:00,
2013-02-14 11:32:00,33.0,30.0,30.17,East,100,0.0,3.0,88,0.00,,,0.02,,2013-02-14 16:32:00,
2013-02-14 11:42:00,33.0,30.0,30.17,East,100,0.0,3.0,88,0.00,,,0.02,,2013-02-14 16:42:00,
2013-02-14 11:52:00,33.0,29.0,30.18,WNW,298,0.0,0.0,84,0.00,,,0.02,,2013-02-14 16:52:00,
2013-02-14 12:01:00,34.0,31.0,30.18,SSE,158,0.0,4.0,87,0.00,,,0.02,,2013-02-14 17:01:00,
2013-02-14 12:11:00,34.0,31.0,30.18,SSE,158,0.0,4.0,87,0.00,,,0.02,,2013-02-14 17:11:00,
2013-02-14 12:21:00,34.0,31.0,30.18,SSE,158,0.0,4.0,87,0.00,,,0.02,,2013-02-14 17:21:00,
2013-02-14 12:32:00,36.0,31.0,30.18,ESE,119,0.0,3.0,83,0.00,,,0.02,,2013-02-14 17:32:00,
2013-02-14 12:42:00,36.0,31.0,30.18,ESE,119,0.0,3.0,83,0.00,,,0.02,,2013-02-14 17:42:00,
2013-02-14 12:52:00,36.0,31.0,30.18,ESE,119,0.0,3.0,83,0.00,,,0.02,,2013-02-14 17:52:00,
2013-02-14 13:02:00,39.0,26.0,30.17,WSW,238,2.0,8.0,60,0.00,,,0.02,,2013-02-14 18:02:00,
2013-02-14 13:11:00,39.0,26.0,30.17,WSW,238,2.0,8.0,60,0.00,,,0.02,,2013-02-14 18:11:00,
2013-02-14 13:23:00,39.0,26.0,30.17,WSW,238,2.0,8.0,60,0.00,,,0.02,,2013-02-14 18:23:00,
2013-02-14 13:32:00,41.0,25.0,30.14,South,185,0.0,6.0,53,0.00,,,0.02,,2013-02-14 18:32:00,
2013-02-14 13:42:00,41.0,25.0,30.14,South,185,0.0,6.0,53,0.00,,,0.02,,2013-02-14 18:42:00,
2013-02-14 13:52:00,42.0,26.0,30.13,SSW,203,1.0,4.0,53,0.00,,,0.02,,2013-02-14 18:52:00,
2013-02-14 14:02:00,42.0,26.0,30.13,SSW,203,1.0,4.0,53,0.00,,,0.02,,2013-02-14 19:02:00,
2013-02-14 14:11:00,42.0,26.0,30.13,SSW,203,1.0,4.0,53,0.00,,,0.02,,2013-02-14 19:11:00,
2013-02-14 14:22:00,43.0,27.0,30.12,SW,221,2.0,7.0,52,0.00,,,0.02,,2013-02-14 19:22:00,
2013-02-14 14:32:00,44.0,31.0,30.12,WSW,248,2.0,6.0,60,0.00,,,0.02,,2013-02-14 19:32:00,
2013-02-14 14:42:00,44.0,31.0,30.12,WSW,248,2.0,6.0,60,0.00,,,0.02,,2013-02-14 19:42:00,
2013-02-14 14:52:00,44.0,28.0,30.13,West,275,5.0,11.0,54,0.00,,,0.02,,2013-02-14 19:52:00,
2013-02-14 15:01:00,44.0,29.0,30.15,NNW,328,3.0,6.0,55,0.00,,,0.02,,2013-02-14 20:01:00,
2013-02-14 15:11:00,45.0,29.0,30.15,West,271,6.0,11.0,54,0.00,,,0.02,,2013-02-14 20:11:00,
2013-02-14 15:21:00,45.0,29.0,30.15,West,271,6.0,11.0,54,0.00,,,0.02,,2013-02-14 20:21:00,
2013-02-14 15:32:00,45.0,30.0,30.14,West,281,8.0,12.0,56,0.00,,,0.02,,2013-02-14 20:32:00,
2013-02-14 15:42:00,45.0,30.0,30.14,West,281,8.0,12.0,56,0.00,,,0.02,,2013-02-14 20:42:00,
2013-02-14 15:52:00,46.0,31.0,30.14,WSW,240,2.0,7.0,55,0.00,,,0.02,,2013-02-14 20:52:00,
2013-02-14 16:02:00,47.0,33.0,30.14,SE,138,0.0,9.0,58,0.00,,,0.02,,2013-02-14 21:02:00,
2013-02-14 16:11:00,47.0,33.0,30.14,SE,138,0.0,9.0,58,0.00,,,0.02,,2013-02-14 21:11:00,
2013-02-14 16:21:00,48.0,30.0,30.14,SSE,165,2.0,8.0,49,0.00,,,0.02,,2013-02-14 21:21:00,
2013-02-14 16:32:00,49.0,32.0,30.14,NNW,337,0.0,8.0,51,0.00,,,0.01,,2013-02-14 21:32:00,
2013-02-14 16:42:00,49.0,32.0,30.14,NNW,337,0.0,8.0,51,0.00,,,0.01,,2013-02-14 21:42:00,
2013-02-14 16:51:00,48.0,29.0,30.15,SSW,195,2.0,12.0,47,0.00,,,0.01,,2013-02-14 21:51:00,
2013-02-14 17:02:00,48.0,32.0,30.15,SSW,212,0.0,11.0,54,0.00,,,0.01,,2013-02-14 22:02:00,
2013-02-14 17:11:00,47.0,29.0,30.15,NW,322,0.0,9.0,49,0.00,,,0.01,,2013-02-14 22:11:00,
2013-02-14 17:21:00,47.0,29.0,30.15,NW,322,0.0,9.0,49,0.00,,,0.01,,2013-02-14 22:21:00,
2013-02-14 17:32:00,46.0,28.0,30.15,NW,314,1.0,6.0,50,0.00,,,0.00,,2013-02-14 22:32:00,
2013-02-14 17:42:00,46.0,28.0,30.15,NW,314,1.0,6.0,50,0.00,,,0.00,,2013-02-14 22:42:00,
2013-02-14 17:51:00,45.0,27.0,30.15,North,354,2.0,6.0,50,0.00,,,0.00,,2013-02-14 22:51:00,
2013-02-14 18:01:00,44.0,27.0,30.15,NW,317,5.0,11.0,51,0.00,,,0.00,,2013-02-14 23:01:00,
2013-02-14 18:11:00,44.0,27.0,30.15,NW,317,5.0,11.0,51,0.00,,,0.00,,2013-02-14 23:11:00,
2013-02-14 18:21:00,43.0,27.0,30.15,SW,218,3.0,8.0,52,0.00,,,0.00,,2013-02-14 23:21:00,
2013-02-14 18:32:00,43.0,26.0,30.15,NNW,332,1.0,9.0,51,0.00,,,0.00,,2013-02-14 23:32:00,
2013-02-14 18:42:00,43.0,26.0,30.15,NNW,332,1.0,9.0,51,0.00,,,0.00,,2013-02-14 23:42:00,
2013-02-14 18:52:00,42.0,26.0,30.16,NNE,24,1.0,6.0,52,0.00,,,0.00,,2013-02-14 23:52:00,
2013-02-14 19:02:00,42.0,27.0,30.16,WSW,258,4.0,9.0,54,0.00,,,0.00,,2013-02-15 00:02:00,
2013-02-14 19:11:00,42.0,27.0,30.16,WSW,258,4.0,9.0,54,0.00,,,0.00,,2013-02-15 00:11:00,
2013-02-14 19:22:00,42.0,27.0,30.16,NNW,335,3.0,10.0,56,0.00,,,0.00,,2013-02-15 00:22:00,
2013-02-14 19:32:00,41.0,27.0,30.16,West,266,5.0,10.0,57,0.00,,,0.00,,2013-02-15 00:32:00,
2013-02-14 19:42:00,41.0,27.0,30.16,West,266,5.0,10.0,57,0.00,,,0.00,,2013-02-15 00:42:00,
2013-02-14 19:51:00,41.0,29.0,30.17,WSW,258,3.0,5.0,61,0.00,,,0.00,,2013-02-15 00:51:00,
2013-02-14 20:02:00,41.0,28.0,30.17,WSW,250,4.0,11.0,59,0.00,,,0.00,,2013-02-15 01:02:00,
2013-02-14 20:11:00,41.0,28.0,30.17,WSW,250,4.0,11.0,59,0.00,,,0.00,,2013-02-15 01:11:00,
2013-02-14 20:21:00,40.0,27.0,30.17,West,263,6.0,9.0,60,0.00,,,0.00,,2013-02-15 01:21:00,
2013-02-14 20:32:00,40.0,28.0,30.17,WSW,257,3.0,10.0,62,0.00,,,0.00,,2013-02-15 01:32:00,
2013-02-14 20:42:00,40.0,28.0,30.17,WSW,257,3.0,10.0,62,0.00,,,0.00,,2013-02-15 01:42:00,
2013-02-14 20:51:00,40.0,28.0,30.17,WNW,285,1.0,10.0,62,0.00,,,0.00,,2013-02-15 01:51:00,
2013-02-14 21:01:00,40.0,28.0,30.17,WSW,243,1.0,5.0,63,0.00,,,0.00,,2013-02-15 02:01:00,
2013-02-14 21:11:00,40.0,28.0,30.17,WSW,243,1.0,5.0,63,0.00,,,0.00,,2013-02-15 02:11:00,
2013-02-14 21:21:00,39.0,28.0,30.17,West,264,3.0,7.0,65,0.00,,,0.00,,2013-02-15 02:21:00,
2013-02-14 21:32:00,39.0,28.0,30.17,West,268,1.0,6.0,65,0.00,,,0.00,,2013-02-15 02:32:00,
2013-02-14 21:42:00,39.0,28.0,30.17,West,268,1.0,6.0,65,0.00,,,0.00,,2013-02-15 02:42:00,
2013-02-14 21:52:00,39.0,29.0,30.17,WSW,250,1.0,4.0,66,0.00,,,0.00,,2013-02-15 02:52:00,
2013-02-14 22:02:00,39.0,29.0,30.18,West,266,0.0,5.0,66,0.00,,,0.00,,2013-02-15 03:02:00,
2013-02-14 22:11:00,39.0,29.0,30.18,West,266,0.0,5.0,66,0.00,,,0.00,,2013-02-15 03:11:00,
2013-02-14 22:22:00,38.0,28.0,30.19,WSW,250,1.0,3.0,67,0.00,,,0.00,,2013-02-15 03:22:00,
2013-02-14 22:32:00,37.0,28.0,30.20,WSW,250,0.0,1.0,69,0.00,,,0.00,,2013-02-15 03:32:00,
2013-02-14 22:42:00,37.0,28.0,30.20,WSW,250,0.0,1.0,69,0.00,,,0.00,,2013-02-15 03:42:00,
2013-02-14 22:51:00,37.0,28.0,30.20,WSW,246,0.0,2.0,70,0.00,,,0.00,,2013-02-15 03:51:00,
2013-02-14 23:02:00,37.0,28.0,30.19,WSW,246,0.0,2.0,71,0.00,,,0.00,,2013-02-15 04:02:00,
2013-02-14 23:11:00,37.0,28.0,30.19,WSW,246,0.0,2.0,71,0.00,,,0.00,,2013-02-15 04:11:00,
2013-02-14 23:21:00,37.0,28.0,30.20,WSW,246,0.0,1.0,71,0.00,,,0.00,,2013-02-15 04:21:00,
2013-02-14 23:32:00,36.0,28.0,30.20,WSW,246,0.0,0.0,71,0.00,,,0.00,,2013-02-15 04:32:00,
2013-02-14 23:42:00,36.0,28.0,30.20,WSW,246,0.0,0.0,71,0.00,,,0.00,,2013-02-15 04:42:00,
2013-02-14 23:52:00,36.0,29.0,30.20,WSW,246,0.0,1.0,76,0.00,,,0.00,,2013-02-15 04:52:00,